createdAt,value
2022-09-21T00:02:15.536Z,6.07
2022-09-21T00:07:19.044Z,6.20
2022-09-21T00:12:22.240Z,6.21
2022-09-21T00:17:25.388Z,6.16
2022-09-21T00:22:29.009Z,6.02
2022-09-21T00:27:32.244Z,5.86
2022-09-21T00:32:35.579Z,5.78
2022-09-21T00:37:38.762Z,5.71
2022-09-21T00:42:41.867Z,5.67
2022-09-21T00:47:44.603Z,5.64
2022-09-21T00:52:47.634Z,5.66
2022-09-21T00:57:50.314Z,5.61
2022-09-21T01:02:55.226Z,5.56
2022-09-21T01:08:00.513Z,5.49
2022-09-21T01:13:06.080Z,5.46
2022-09-21T01:18:11.682Z,5.40
2022-09-21T01:23:14.981Z,5.32
2022-09-21T01:28:20.857Z,5.26
2022-09-21T01:33:23.998Z,5.17
2022-09-21T01:38:27.827Z,5.12
2022-09-21T01:43:31.847Z,5.08
2022-09-21T01:48:35.252Z,4.99
2022-09-21T01:53:37.946Z,4.91
2022-09-21T01:58:40.638Z,4.88
2022-09-21T02:03:43.740Z,4.84
2022-09-21T02:08:46.430Z,4.81
2022-09-21T02:13:49.204Z,4.76
2022-09-21T02:18:51.875Z,4.71
2022-09-21T02:23:54.630Z,4.71
2022-09-21T02:28:57.860Z,4.75
2022-09-21T02:34:00.608Z,4.73
2022-09-21T02:39:03.333Z,4.71
2022-09-21T02:44:06.275Z,4.73
2022-09-21T02:49:09.230Z,4.72
2022-09-21T02:54:11.896Z,4.67
2022-09-21T02:59:14.945Z,4.63
2022-09-21T03:04:17.664Z,4.61
2022-09-21T03:09:24.174Z,4.57
2022-09-21T03:14:26.878Z,4.58
2022-09-21T03:19:29.564Z,4.54
2022-09-21T03:24:48.051Z,4.47
2022-09-21T03:29:51.340Z,4.37
2022-09-21T03:34:54.636Z,4.36
2022-09-21T03:39:57.958Z,4.34
2022-09-21T03:45:01.617Z,4.28
2022-09-21T03:50:09.213Z,4.26
2022-09-21T03:55:13.269Z,4.27
2022-09-21T04:00:16.608Z,4.26
2022-09-21T04:05:20.790Z,4.22
2022-09-21T04:10:27.132Z,4.17
2022-09-21T04:15:30.526Z,4.14
2022-09-21T04:20:33.376Z,4.15
2022-09-21T04:25:36.234Z,4.12
2022-09-21T04:30:39.320Z,4.15
2022-09-21T04:35:42.754Z,4.08
2022-09-21T04:40:46.119Z,4.02
2022-09-21T04:45:48.856Z,4.03
2022-09-21T04:50:51.659Z,3.97
2022-09-21T04:55:55.433Z,4.00
2022-09-21T05:00:58.239Z,4.04
2022-09-21T05:06:01.826Z,4.03
2022-09-21T05:11:04.800Z,4.06
2022-09-21T05:16:07.506Z,4.10
2022-09-21T05:21:10.224Z,4.14
2022-09-21T05:26:13.074Z,4.34
2022-09-21T05:31:18.039Z,4.51
2022-09-21T05:36:21.140Z,4.66
2022-09-21T05:41:24.269Z,4.95
2022-09-21T05:46:27.083Z,5.18
2022-09-21T05:51:29.819Z,5.56
2022-09-21T05:56:32.557Z,5.90
2022-09-21T06:01:35.425Z,6.13
2022-09-21T06:06:38.202Z,6.52
2022-09-21T06:11:41.744Z,6.69
2022-09-21T06:16:44.466Z,7.01
2022-09-21T06:21:47.374Z,7.24
2022-09-21T06:26:50.085Z,7.50
2022-09-21T06:31:52.795Z,7.66
2022-09-21T06:36:55.437Z,7.81
2022-09-21T06:41:59.235Z,8.04
2022-09-21T06:47:01.930Z,8.00
2022-09-21T06:52:04.617Z,8.32
2022-09-21T06:57:07.356Z,8.25
2022-09-21T07:02:10.110Z,8.37
2022-09-21T07:07:12.937Z,8.48
2022-09-21T07:12:16.206Z,8.53
2022-09-21T07:17:19.482Z,8.91
2022-09-21T07:22:22.388Z,9.03
2022-09-21T07:27:25.159Z,9.17
2022-09-21T07:32:27.924Z,8.99
2022-09-21T07:37:30.649Z,9.32
2022-09-21T07:42:34.755Z,9.40
2022-09-21T07:47:37.462Z,9.24
2022-09-21T07:52:40.175Z,9.39
2022-09-21T07:58:00.957Z,9.53
2022-09-21T08:03:05.081Z,9.92
2022-09-21T08:08:08.213Z,10.16
2022-09-21T08:13:11.750Z,10.24
2022-09-21T08:18:14.453Z,10.40
2022-09-21T08:23:18.676Z,10.35
2022-09-21T08:28:21.811Z,10.72
2022-09-21T08:33:28.683Z,10.27
2022-09-21T08:38:34.494Z,10.49
2022-09-21T08:43:40.027Z,10.89
2022-09-21T08:48:42.790Z,11.13
2022-09-21T08:53:45.925Z,11.26
2022-09-21T08:58:48.761Z,11.03
2022-09-21T09:03:51.452Z,11.42
2022-09-21T09:08:57.622Z,11.28
2022-09-21T09:14:00.364Z,11.93
2022-09-21T09:19:03.154Z,11.40
2022-09-21T09:24:05.836Z,11.34
2022-09-21T09:29:08.549Z,11.21
2022-09-21T09:34:17.275Z,10.81
2022-09-21T09:39:19.951Z,11.70
2022-09-21T09:44:22.702Z,12.50
2022-09-21T09:49:25.350Z,12.69
2022-09-21T09:54:28.022Z,12.77
2022-09-21T09:59:31.051Z,11.67
2022-09-21T10:04:34.748Z,11.72
2022-09-21T10:09:37.521Z,11.79
2022-09-21T10:14:40.235Z,11.44
2022-09-21T10:19:43.019Z,11.72
2022-09-21T10:24:46.441Z,12.53
2022-09-21T10:29:49.093Z,12.48
2022-09-21T10:34:51.772Z,12.20
2022-09-21T10:39:54.471Z,12.21
2022-09-21T10:44:57.233Z,12.49
2022-09-21T10:50:00.373Z,12.18
2022-09-21T10:55:03.125Z,12.37
2022-09-21T11:00:06.380Z,12.57
2022-09-21T11:05:09.108Z,12.91
2022-09-21T11:10:11.770Z,13.06
2022-09-21T11:15:14.478Z,13.10
2022-09-21T11:20:17.191Z,12.86
2022-09-21T11:25:19.909Z,13.36
2022-09-21T11:30:22.774Z,13.44
2022-09-21T11:35:27.056Z,13.60
2022-09-21T11:40:30.311Z,13.43
2022-09-21T11:45:33.687Z,13.58
2022-09-21T11:50:36.864Z,12.99
2022-09-21T11:55:42.480Z,12.76
2022-09-21T12:00:45.677Z,13.00
2022-09-21T12:05:49.001Z,12.80
2022-09-21T12:10:52.654Z,12.47
2022-09-21T12:15:56.268Z,12.89
2022-09-21T12:20:59.582Z,13.27
2022-09-21T12:26:02.941Z,13.25
2022-09-21T12:31:06.354Z,13.39
2022-09-21T12:36:10.536Z,13.06
2022-09-21T12:41:16.026Z,12.48
2022-09-21T12:46:19.324Z,12.78
2022-09-21T12:51:23.011Z,13.11
2022-09-21T12:56:26.549Z,13.18
2022-09-21T13:01:29.880Z,13.21
2022-09-21T13:06:33.080Z,12.82
2022-09-21T13:11:36.257Z,12.65
2022-09-21T13:16:40.015Z,12.51
2022-09-21T13:21:44.293Z,12.79
2022-09-21T13:26:47.464Z,13.11
2022-09-21T13:31:50.792Z,13.19
2022-09-21T13:36:54.455Z,13.04
2022-09-21T13:42:04.892Z,12.96
2022-09-21T13:47:08.439Z,12.92
2022-09-21T13:52:11.678Z,12.88
2022-09-21T13:57:14.861Z,13.00
2022-09-21T14:02:18.268Z,13.15
2022-09-21T14:07:21.613Z,13.20
2022-09-21T14:12:25.234Z,13.12
2022-09-21T14:17:28.835Z,13.01
2022-09-21T14:22:32.034Z,13.20
2022-09-21T14:27:35.235Z,13.18
2022-09-21T14:32:39.449Z,13.08
2022-09-21T14:37:43.268Z,13.01
2022-09-21T14:42:46.538Z,13.12
2022-09-21T14:47:51.981Z,13.01
2022-09-21T14:52:56.129Z,12.89
2022-09-21T14:58:00.280Z,12.96
2022-09-21T15:03:03.704Z,12.89
2022-09-21T15:08:24.421Z,12.89
2022-09-21T15:13:27.597Z,12.78
2022-09-21T15:18:30.761Z,12.84
2022-09-21T15:23:33.949Z,12.76
2022-09-21T15:29:04.898Z,12.69
2022-09-21T15:34:02.661Z,12.69
2022-09-21T15:39:05.953Z,12.56
2022-09-21T15:44:09.286Z,12.56
2022-09-21T15:49:12.455Z,12.47
2022-09-21T15:54:15.674Z,12.40
2022-09-21T15:59:20.713Z,12.34
2022-09-21T16:04:23.949Z,12.32
2022-09-21T16:09:28.772Z,12.20
2022-09-21T16:14:53.702Z,12.17
2022-09-21T16:19:57.639Z,12.07
2022-09-21T16:25:00.805Z,11.95
2022-09-21T16:30:04.541Z,11.73
2022-09-21T16:35:08.343Z,11.67
2022-09-21T16:40:11.875Z,11.52
2022-09-21T16:45:15.605Z,11.43
2022-09-21T16:50:20.079Z,11.34
2022-09-21T16:55:28.256Z,11.18
2022-09-21T17:00:32.438Z,11.03
2022-09-21T17:05:35.685Z,10.80
2022-09-21T17:10:39.230Z,10.67
2022-09-21T17:15:43.261Z,10.48
2022-09-21T17:20:47.098Z,10.48
2022-09-21T17:25:50.303Z,10.34
2022-09-21T17:30:53.608Z,10.21
2022-09-21T17:35:56.874Z,9.94
2022-09-21T17:41:00.155Z,9.74
2022-09-21T17:46:03.727Z,9.79
2022-09-21T17:51:06.936Z,9.86
2022-09-21T17:56:10.163Z,9.68
2022-09-21T18:01:13.880Z,9.57
2022-09-21T18:06:17.695Z,9.42
2022-09-21T18:11:21.864Z,9.35
2022-09-21T18:16:26.931Z,9.26
2022-09-21T18:21:30.129Z,9.29
2022-09-21T18:26:34.445Z,9.13
2022-09-21T18:31:41.113Z,8.97
2022-09-21T18:36:43.890Z,8.92
2022-09-21T18:41:47.696Z,8.93
2022-09-21T18:46:50.501Z,8.81
2022-09-21T18:51:53.249Z,8.74
2022-09-21T18:56:56.076Z,8.66
2022-09-21T19:02:00.205Z,8.52
2022-09-21T19:07:03.045Z,8.40
2022-09-21T19:12:07.570Z,8.35
2022-09-21T19:17:10.270Z,8.11
2022-09-21T19:22:19.649Z,8.14
2022-09-21T19:27:22.385Z,7.93
2022-09-21T19:32:25.154Z,7.85
2022-09-21T19:37:27.925Z,7.85
2022-09-21T19:42:31.157Z,7.73
2022-09-21T19:47:34.580Z,7.61
2022-09-21T19:52:37.488Z,7.64
2022-09-21T19:57:58.111Z,7.49
2022-09-21T20:03:01.186Z,7.45
2022-09-21T20:08:04.396Z,7.37
2022-09-21T20:13:07.668Z,7.36
2022-09-21T20:18:10.549Z,7.28
2022-09-21T20:23:13.382Z,7.24
2022-09-21T20:28:16.394Z,7.18
2022-09-21T20:33:23.044Z,7.10
2022-09-21T20:38:25.925Z,6.99
2022-09-21T20:43:32.639Z,6.96
2022-09-21T20:48:36.650Z,6.86
2022-09-21T20:53:39.943Z,6.92
2022-09-21T20:58:42.769Z,6.80
2022-09-21T21:03:45.587Z,6.72
2022-09-21T21:08:48.477Z,6.70
2022-09-21T21:13:51.330Z,6.65
2022-09-21T21:18:54.104Z,6.56
2022-09-21T21:24:14.921Z,6.48
2022-09-21T21:29:18.483Z,6.40
2022-09-21T21:34:25.047Z,6.40
2022-09-21T21:39:28.197Z,6.44
2022-09-21T21:44:31.375Z,6.37
2022-09-21T21:49:35.441Z,6.32
2022-09-21T21:54:38.820Z,6.23
2022-09-21T21:59:42.538Z,6.26
2022-09-21T22:04:45.692Z,6.07
2022-09-21T22:09:48.360Z,6.00
2022-09-21T22:14:51.024Z,5.93
2022-09-21T22:19:54.091Z,5.86
2022-09-21T22:24:56.814Z,5.82
2022-09-21T22:29:59.626Z,5.92
2022-09-21T22:35:03.206Z,5.87
2022-09-21T22:40:06.678Z,5.89
2022-09-21T22:45:09.853Z,5.89
2022-09-21T22:50:12.683Z,5.79
2022-09-21T22:55:22.026Z,5.68
2022-09-21T23:00:24.733Z,5.60
2022-09-21T23:05:27.837Z,5.75
2022-09-21T23:10:30.538Z,5.71
2022-09-21T23:15:33.303Z,5.71
2022-09-21T23:20:36.032Z,5.60
2022-09-21T23:25:38.719Z,5.53
2022-09-21T23:30:41.749Z,5.61
2022-09-21T23:35:44.409Z,5.58
2022-09-21T23:40:47.156Z,5.52
2022-09-21T23:45:49.892Z,5.57
2022-09-21T23:50:56.514Z,5.51
2022-09-21T23:56:01.133Z,5.40
